createdAt,value
2018-11-06T00:00:48.947Z,11.53
2018-11-06T00:05:52.797Z,11.90
2018-11-06T00:10:56.393Z,11.13
2018-11-06T00:16:00.013Z,12.10
2018-11-06T00:21:04.716Z,12.30
2018-11-06T00:26:09.140Z,10.90
2018-11-06T00:31:13.052Z,9.67
2018-11-06T00:36:16.784Z,11.07
2018-11-06T00:41:20.427Z,10.17
2018-11-06T00:46:24.098Z,10.73
2018-11-06T00:51:27.771Z,11.10
2018-11-06T00:56:32.643Z,11.60
2018-11-06T01:01:36.332Z,10.10
2018-11-06T01:06:40.209Z,10.60
2018-11-06T01:11:44.377Z,9.93
2018-11-06T01:16:48.323Z,9.50
2018-11-06T01:21:52.010Z,10.07
2018-11-06T01:26:56.185Z,10.07
2018-11-06T01:31:59.919Z,10.13
2018-11-06T01:37:03.754Z,9.33
2018-11-06T01:42:07.614Z,9.50
2018-11-06T01:47:12.087Z,8.97
2018-11-06T01:52:15.762Z,8.83
2018-11-06T01:57:20.835Z,10.60
2018-11-06T02:02:24.563Z,10.23
2018-11-06T02:07:28.402Z,10.40
2018-11-06T02:12:32.062Z,9.93
2018-11-06T02:17:36.358Z,8.93
2018-11-06T02:22:41.594Z,9.63
2018-11-06T02:27:45.300Z,10.77
2018-11-06T02:32:49.011Z,9.80
2018-11-06T02:37:52.921Z,9.63
2018-11-06T02:42:56.597Z,9.20
2018-11-06T02:48:00.371Z,10.00
2018-11-06T02:53:04.293Z,9.40
2018-11-06T02:58:08.009Z,9.57
2018-11-06T03:03:13.176Z,9.43
2018-11-06T03:08:18.268Z,9.70
2018-11-06T03:13:22.004Z,9.77
2018-11-06T03:18:25.931Z,10.57
2018-11-06T03:23:29.597Z,10.03
2018-11-06T03:28:33.295Z,9.70
2018-11-06T03:33:37.295Z,10.60
2018-11-06T03:38:40.993Z,9.80
2018-11-06T03:43:44.568Z,9.57
2018-11-06T03:48:48.156Z,9.83
2018-11-06T03:53:52.200Z,9.53
2018-11-06T03:58:59.131Z,10.50
2018-11-06T04:04:05.639Z,10.03
2018-11-06T04:09:13.743Z,9.50
2018-11-06T04:14:17.361Z,10.40
2018-11-06T04:19:20.908Z,9.27
2018-11-06T04:24:24.500Z,10.20
2018-11-06T04:29:28.099Z,11.37
2018-11-06T04:34:31.683Z,11.73
2018-11-06T04:39:35.358Z,8.60
2018-11-06T04:44:38.979Z,10.63
2018-11-06T04:49:42.582Z,11.30
2018-11-06T04:54:46.228Z,9.50
2018-11-06T04:59:49.812Z,9.63
2018-11-06T05:04:53.416Z,9.07
2018-11-06T05:09:57.830Z,8.93
2018-11-06T05:15:01.697Z,8.60
2018-11-06T05:20:10.423Z,9.77
2018-11-06T05:25:14.222Z,9.50
2018-11-06T05:30:17.800Z,8.50
2018-11-06T05:35:21.747Z,10.60
2018-11-06T05:40:37.246Z,9.77
2018-11-06T05:45:40.889Z,9.50
2018-11-06T05:50:45.098Z,10.77
2018-11-06T05:55:49.052Z,10.47
2018-11-06T06:00:53.570Z,10.33
2018-11-06T06:05:57.915Z,10.60
2018-11-06T06:11:01.606Z,10.87
2018-11-06T06:16:05.499Z,10.33
2018-11-06T06:21:09.576Z,10.20
2018-11-06T06:26:13.848Z,12.50
2018-11-06T06:31:17.556Z,20.90
2018-11-06T06:36:21.191Z,12.90
2018-11-06T06:41:24.793Z,10.63
2018-11-06T06:46:29.195Z,10.03
2018-11-06T06:51:32.867Z,10.30
2018-11-06T06:56:36.620Z,10.90
2018-11-06T07:01:40.269Z,10.80
2018-11-06T07:06:44.000Z,11.53
2018-11-06T07:11:47.703Z,11.33
2018-11-06T07:16:51.480Z,11.00
2018-11-06T07:21:55.195Z,10.70
2018-11-06T07:32:10.959Z,10.47
2018-11-06T07:37:14.516Z,10.13
2018-11-06T07:42:18.095Z,9.40
2018-11-06T07:47:22.072Z,10.63
2018-11-06T07:52:25.687Z,9.10
2018-11-06T07:57:29.277Z,9.43
2018-11-06T08:02:32.855Z,10.00
2018-11-06T08:07:36.558Z,9.23
2018-11-06T08:12:41.797Z,8.70
2018-11-06T08:17:46.184Z,9.93
2018-11-06T08:22:50.556Z,8.30
2018-11-06T08:27:55.955Z,9.33
2018-11-06T08:33:00.185Z,9.20
2018-11-06T08:38:04.092Z,9.13
2018-11-06T08:43:07.742Z,8.63
2018-11-06T08:48:12.077Z,8.40
2018-11-06T08:53:16.340Z,8.93
2018-11-06T08:58:22.281Z,9.20
2018-11-06T09:03:26.200Z,9.40
2018-11-06T09:08:30.107Z,9.60
2018-11-06T09:13:35.010Z,8.10
2018-11-06T09:18:38.691Z,8.80
2018-11-06T09:23:42.331Z,8.33
2018-11-06T09:28:47.218Z,8.67
2018-11-06T09:33:51.447Z,7.83
2018-11-06T09:38:55.095Z,8.70
2018-11-06T09:43:58.837Z,8.43
2018-11-06T09:49:02.626Z,8.00
2018-11-06T09:54:06.925Z,8.80
2018-11-06T09:59:10.567Z,7.57
2018-11-06T10:04:14.232Z,8.60
2018-11-06T10:09:17.947Z,9.50
2018-11-06T10:14:21.500Z,8.40
2018-11-06T10:19:25.186Z,7.93
2018-11-06T10:24:30.638Z,7.90
2018-11-06T10:29:34.355Z,7.67
2018-11-06T10:34:37.941Z,8.07
2018-11-06T10:39:41.897Z,8.17
2018-11-06T10:44:45.500Z,8.00
2018-11-06T10:49:49.078Z,7.30
2018-11-06T10:54:53.540Z,7.40
2018-11-06T10:59:57.535Z,6.57
2018-11-06T11:05:01.121Z,7.40
2018-11-06T11:10:04.977Z,7.47
2018-11-06T11:15:08.580Z,7.47
2018-11-06T11:20:13.579Z,6.80
2018-11-06T11:25:17.389Z,7.40
2018-11-06T11:30:21.066Z,7.43
2018-11-06T11:35:24.682Z,5.83
2018-11-06T11:40:28.503Z,5.80
2018-11-06T11:45:32.172Z,6.80
2018-11-06T11:50:35.768Z,6.00
2018-11-06T11:55:40.091Z,5.60
2018-11-06T12:00:43.763Z,5.80
2018-11-06T12:05:47.518Z,7.40
2018-11-06T12:10:51.132Z,8.10
2018-11-06T12:15:54.962Z,6.27
2018-11-06T12:20:58.658Z,5.77
2018-11-06T12:26:02.312Z,5.63
2018-11-06T12:31:06.087Z,5.90
2018-11-06T12:36:09.745Z,5.50
2018-11-06T12:41:13.677Z,5.50
2018-11-06T12:46:17.322Z,13.57
2018-11-06T12:51:20.921Z,13.17
2018-11-06T12:56:24.636Z,6.63
2018-11-06T13:01:28.281Z,6.07
2018-11-06T13:06:31.926Z,5.90
2018-11-06T13:11:35.623Z,23.60
2018-11-06T13:16:39.719Z,16.90
2018-11-06T13:21:45.607Z,7.37
2018-11-06T13:26:49.244Z,6.23
2018-11-06T13:31:52.881Z,6.07
2018-11-06T13:36:56.730Z,7.43
2018-11-06T13:42:01.063Z,7.17
2018-11-06T13:47:04.960Z,7.30
2018-11-06T13:52:10.288Z,6.83
2018-11-06T13:57:13.844Z,7.90
2018-11-06T14:02:17.516Z,7.30
2018-11-06T14:07:24.420Z,7.67
2018-11-06T14:12:28.667Z,8.37
2018-11-06T14:17:32.401Z,7.17
2018-11-06T14:22:40.052Z,7.63
2018-11-06T14:27:43.696Z,7.60
2018-11-06T14:32:48.297Z,7.93
2018-11-06T14:37:52.206Z,8.73
2018-11-06T14:42:56.185Z,8.70
2018-11-06T14:47:59.834Z,7.70
2018-11-06T14:53:03.829Z,7.90
2018-11-06T14:58:07.613Z,8.30
2018-11-06T15:03:13.212Z,7.70
2018-11-06T15:08:16.813Z,8.37
2018-11-06T15:13:20.495Z,7.97
2018-11-06T15:18:24.361Z,7.97
2018-11-06T15:23:34.551Z,12.00
2018-11-06T15:28:38.254Z,6.93
2018-11-06T15:33:42.226Z,5.30
2018-11-06T15:38:46.126Z,4.70
2018-11-06T15:43:49.767Z,5.10
2018-11-06T15:48:56.415Z,4.87
2018-11-06T15:54:00.694Z,4.23
2018-11-06T15:59:04.397Z,4.63
2018-11-06T16:04:08.786Z,4.13
2018-11-06T16:09:12.365Z,4.27
2018-11-06T16:14:15.971Z,4.20
2018-11-06T16:19:19.560Z,4.93
2018-11-06T16:24:24.827Z,6.00
2018-11-06T16:29:28.518Z,5.60
2018-11-06T16:34:34.356Z,5.90
2018-11-06T16:39:38.098Z,5.57
2018-11-06T16:44:41.679Z,5.53
2018-11-06T16:54:55.054Z,6.30
2018-11-06T16:59:58.818Z,6.87
2018-11-06T17:05:05.431Z,5.80
2018-11-06T17:10:11.293Z,5.53
2018-11-06T17:15:16.741Z,5.70
2018-11-06T17:20:21.196Z,5.23
2018-11-06T17:25:24.873Z,5.30
2018-11-06T17:30:28.799Z,5.10
2018-11-06T17:35:33.663Z,5.13
2018-11-06T17:40:37.239Z,5.67
2018-11-06T17:45:40.830Z,5.33
2018-11-06T17:50:44.380Z,4.40
2018-11-06T17:55:47.960Z,3.80
2018-11-06T18:00:51.563Z,4.23
2018-11-06T18:05:55.663Z,3.47
2018-11-06T18:10:59.249Z,3.73
2018-11-06T18:16:03.533Z,2.70
2018-11-06T18:21:09.222Z,2.60
2018-11-06T18:26:12.770Z,2.30
2018-11-06T18:31:16.787Z,2.27
2018-11-06T18:36:20.615Z,2.37
2018-11-06T18:41:24.528Z,2.80
2018-11-06T18:46:28.111Z,3.90
2018-11-06T18:51:32.343Z,2.93
2018-11-06T18:56:36.170Z,2.40
2018-11-06T19:01:39.728Z,2.40
2018-11-06T19:06:44.962Z,2.77
2018-11-06T19:11:48.537Z,2.53
2018-11-06T19:16:52.536Z,2.63
2018-11-06T19:21:56.136Z,2.50
2018-11-06T19:26:59.703Z,2.57
2018-11-06T19:32:03.287Z,2.93
2018-11-06T19:37:07.017Z,3.50
2018-11-06T19:42:10.617Z,2.97
2018-11-06T19:47:14.456Z,3.60
2018-11-06T19:52:18.113Z,4.60
2018-11-06T19:57:21.876Z,4.90
2018-11-06T20:02:26.899Z,4.13
2018-11-06T20:07:30.470Z,4.00
2018-11-06T20:12:34.203Z,4.30
2018-11-06T20:17:40.395Z,7.47
2018-11-06T20:22:44.213Z,3.47
2018-11-06T20:27:48.019Z,2.63
2018-11-06T20:32:51.668Z,3.30
2018-11-06T20:37:55.610Z,3.40
2018-11-06T20:42:59.749Z,3.87
2018-11-06T20:48:03.769Z,4.20
2018-11-06T20:53:07.428Z,4.80
2018-11-06T20:58:11.001Z,4.10
2018-11-06T21:03:15.999Z,3.60
2018-11-06T21:08:20.008Z,2.70
2018-11-06T21:13:23.778Z,2.80
2018-11-06T21:18:27.673Z,3.87
2018-11-06T21:23:31.181Z,3.00
2018-11-06T21:28:34.809Z,3.17
2018-11-06T21:33:38.494Z,3.33
2018-11-06T21:38:42.033Z,3.43
2018-11-06T21:43:45.734Z,3.90
2018-11-06T21:48:49.532Z,3.33
2018-11-06T21:53:53.098Z,5.80
2018-11-06T21:58:56.726Z,6.70
2018-11-06T22:04:00.652Z,5.37
2018-11-06T22:09:05.160Z,3.60
2018-11-06T22:14:09.129Z,3.80
2018-11-06T22:19:13.379Z,4.23
2018-11-06T22:24:16.996Z,3.00
2018-11-06T22:29:20.935Z,3.10
2018-11-06T22:39:35.840Z,2.60
2018-11-06T22:44:42.598Z,3.00
2018-11-06T22:49:46.203Z,2.50
2018-11-06T22:54:50.083Z,3.80
2018-11-06T22:59:53.692Z,3.90
2018-11-06T23:04:57.263Z,3.80
2018-11-06T23:10:02.322Z,4.53
2018-11-06T23:15:06.780Z,5.93
2018-11-06T23:20:10.986Z,4.67
2018-11-06T23:25:15.461Z,3.77
2018-11-06T23:30:21.683Z,3.60
2018-11-06T23:35:25.374Z,3.87
2018-11-06T23:40:29.575Z,3.03
2018-11-06T23:45:34.025Z,4.03
2018-11-06T23:50:37.629Z,3.20
2018-11-06T23:55:41.242Z,3.60
